Terminal Aerodrome Forecast
Issued by NWS Wilmington, OH

Current Version | Previous Version | Graphics & Text | Print | Product List | Glossary On
Versions: 1 2 3 4 5 6 7 8 9 10 11 12 13 14 15 16 17 18 19 20 21 22 23 24 25 26 27 28 29 30 31
000
FTUS41 KILN 291300 AAA
TAFCMH
TAF AMD
KCMH 291306Z 2913/3012 28009KT P6SM -RA FEW060 SCT080 OVC100
      TEMPO 2913/2916 2SM +RA OVC035
     FM291600 17012G18KT P6SM VCSH BKN040
     FM292000 18012G20KT P6SM VCTS BKN040CB
     FM300000 19012KT P6SM VCSH BKN035
     FM300400 23010KT P6SM BKN035=

USA.gov is the U.S. government's official web portal to all federal, state and local government web resources and services.